sensor_id;sensor_type;location;lat;lon;timestamp;temperature;humidity
16305;DHT22;8261;47.678;-122.174;2022-07-22T00:11:59;30.10;99.90
16305;DHT22;8261;47.678;-122.174;2022-07-22T00:14:30;29.70;99.90
16305;DHT22;8261;47.678;-122.174;2022-07-22T00:17:02;29.90;99.90
16305;DHT22;8261;47.678;-122.174;2022-07-22T00:30:53;29.50;99.90
16305;DHT22;8261;47.678;-122.174;2022-07-22T00:33:32;29.40;99.90
16305;DHT22;8261;47.678;-122.174;2022-07-22T00:47:05;29.90;99.90
16305;DHT22;8261;47.678;-122.174;2022-07-22T00:49:38;30.20;99.90
16305;DHT22;8261;47.678;-122.174;2022-07-22T00:52:11;30.00;99.90
16305;DHT22;8261;47.678;-122.174;2022-07-22T00:54:48;30.10;99.90
16305;DHT22;8261;47.678;-122.174;2022-07-22T00:57:20;29.70;99.90
16305;DHT22;8261;47.678;-122.174;2022-07-22T00:59:53;29.60;99.90
16305;DHT22;8261;47.678;-122.174;2022-07-22T01:05:21;30.00;99.90
16305;DHT22;8261;47.678;-122.174;2022-07-22T01:07:52;30.70;99.90
16305;DHT22;8261;47.678;-122.174;2022-07-22T01:10:38;30.80;99.90
16305;DHT22;8261;47.678;-122.174;2022-07-22T01:13:17;31.40;99.90
16305;DHT22;8261;47.678;-122.174;2022-07-22T01:15:49;31.60;99.90
16305;DHT22;8261;47.678;-122.174;2022-07-22T01:18:22;32.00;99.90
16305;DHT22;8261;47.678;-122.174;2022-07-22T01:29:23;32.10;99.90
16305;DHT22;8261;47.678;-122.174;2022-07-22T01:32:09;32.30;99.90
16305;DHT22;8261;47.678;-122.174;2022-07-22T01:34:41;32.80;99.90
16305;DHT22;8261;47.678;-122.174;2022-07-22T01:37:12;32.90;98.80
16305;DHT22;8261;47.678;-122.174;2022-07-22T01:39:44;33.00;98.90
16305;DHT22;8261;47.678;-122.174;2022-07-22T01:42:16;33.20;98.80
16305;DHT22;8261;47.678;-122.174;2022-07-22T01:44:49;33.10;99.00
16305;DHT22;8261;47.678;-122.174;2022-07-22T01:47:20;33.10;98.90
16305;DHT22;8261;47.678;-122.174;2022-07-22T01:49:52;32.20;99.00
16305;DHT22;8261;47.678;-122.174;2022-07-22T01:52:25;31.40;99.80
16305;DHT22;8261;47.678;-122.174;2022-07-22T01:54:57;31.90;99.80
16305;DHT22;8261;47.678;-122.174;2022-07-22T02:03:02;31.40;99.90
16305;DHT22;8261;47.678;-122.174;2022-07-22T02:05:38;32.00;99.90
16305;DHT22;8261;47.678;-122.174;2022-07-22T02:08:21;31.60;99.90
16305;DHT22;8261;47.678;-122.174;2022-07-22T02:11:19;31.50;99.90
16305;DHT22;8261;47.678;-122.174;2022-07-22T02:14:14;30.90;99.90
16305;DHT22;8261;47.678;-122.174;2022-07-22T02:16:49;29.90;99.90
16305;DHT22;8261;47.678;-122.174;2022-07-22T02:19:38;29.50;99.90
16305;DHT22;8261;47.678;-122.174;2022-07-22T03:01:16;25.20;99.90
16305;DHT22;8261;47.678;-122.174;2022-07-22T03:04:04;24.90;99.90
16305;DHT22;8261;47.678;-122.174;2022-07-22T03:41:47;23.70;99.90
16305;DHT22;8261;47.678;-122.174;2022-07-22T03:44:31;23.60;99.90
16305;DHT22;8261;47.678;-122.174;2022-07-22T04:08:51;22.80;99.90
16305;DHT22;8261;47.678;-122.174;2022-07-22T04:11:24;22.70;99.90
16305;DHT22;8261;47.678;-122.174;2022-07-22T04:13:58;22.70;99.90
16305;DHT22;8261;47.678;-122.174;2022-07-22T04:16:30;22.50;99.90
16305;DHT22;8261;47.678;-122.174;2022-07-22T04:19:01;22.40;99.90
16305;DHT22;8261;47.678;-122.174;2022-07-22T04:30:14;21.90;99.90
16305;DHT22;8261;47.678;-122.174;2022-07-22T04:33:11;21.80;99.90
16305;DHT22;8261;47.678;-122.174;2022-07-22T04:35:55;21.70;99.90
16305;DHT22;8261;47.678;-122.174;2022-07-22T04:38:56;21.70;99.90
16305;DHT22;8261;47.678;-122.174;2022-07-22T04:41:45;21.60;99.90
16305;DHT22;8261;47.678;-122.174;2022-07-22T04:44:17;21.50;99.90
16305;DHT22;8261;47.678;-122.174;2022-07-22T04:47:17;21.40;99.90
16305;DHT22;8261;47.678;-122.174;2022-07-22T04:50:16;21.30;99.90
16305;DHT22;8261;47.678;-122.174;2022-07-22T04:53:00;21.20;99.90
16305;DHT22;8261;47.678;-122.174;2022-07-22T04:55:33;21.20;99.90
16305;DHT22;8261;47.678;-122.174;2022-07-22T04:58:05;21.00;99.90
16305;DHT22;8261;47.678;-122.174;2022-07-22T05:00:46;20.90;99.90
16305;DHT22;8261;47.678;-122.174;2022-07-22T05:03:24;20.80;99.90
16305;DHT22;8261;47.678;-122.174;2022-07-22T05:05:55;20.80;99.90
16305;DHT22;8261;47.678;-122.174;2022-07-22T05:08:27;20.80;99.90
16305;DHT22;8261;47.678;-122.174;2022-07-22T05:10:59;20.60;99.90
16305;DHT22;8261;47.678;-122.174;2022-07-22T05:13:32;20.50;99.90
16305;DHT22;8261;47.678;-122.174;2022-07-22T05:16:04;20.40;99.90
16305;DHT22;8261;47.678;-122.174;2022-07-22T05:18:37;20.30;99.90
16305;DHT22;8261;47.678;-122.174;2022-07-22T05:21:09;20.20;99.90
16305;DHT22;8261;47.678;-122.174;2022-07-22T05:23:40;20.20;99.90
16305;DHT22;8261;47.678;-122.174;2022-07-22T05:26:12;20.10;99.90
16305;DHT22;8261;47.678;-122.174;2022-07-22T05:28:42;20.00;99.90
16305;DHT22;8261;47.678;-122.174;2022-07-22T05:31:14;20.00;99.90
16305;DHT22;8261;47.678;-122.174;2022-07-22T05:33:48;19.90;99.90
16305;DHT22;8261;47.678;-122.174;2022-07-22T05:36:20;19.80;99.90
16305;DHT22;8261;47.678;-122.174;2022-07-22T05:38:52;19.70;99.90
16305;DHT22;8261;47.678;-122.174;2022-07-22T05:41:24;19.70;99.90
16305;DHT22;8261;47.678;-122.174;2022-07-22T05:43:56;19.60;99.90
16305;DHT22;8261;47.678;-122.174;2022-07-22T05:46:36;19.50;99.90
16305;DHT22;8261;47.678;-122.174;2022-07-22T05:49:11;19.50;99.90
16305;DHT22;8261;47.678;-122.174;2022-07-22T05:51:44;19.40;99.90
16305;DHT22;8261;47.678;-122.174;2022-07-22T05:54:16;19.30;99.90
16305;DHT22;8261;47.678;-122.174;2022-07-22T05:56:47;19.20;99.90
16305;DHT22;8261;47.678;-122.174;2022-07-22T05:59:18;19.10;99.90
16305;DHT22;8261;47.678;-122.174;2022-07-22T06:01:50;19.10;99.90
16305;DHT22;8261;47.678;-122.174;2022-07-22T06:04:24;19.20;99.90
16305;DHT22;8261;47.678;-122.174;2022-07-22T06:06:56;19.10;99.90
16305;DHT22;8261;47.678;-122.174;2022-07-22T06:09:27;19.00;99.90
16305;DHT22;8261;47.678;-122.174;2022-07-22T06:11:58;18.90;99.90
16305;DHT22;8261;47.678;-122.174;2022-07-22T06:14:30;18.80;99.90
16305;DHT22;8261;47.678;-122.174;2022-07-22T06:17:01;18.80;99.90
16305;DHT22;8261;47.678;-122.174;2022-07-22T06:19:36;18.70;99.90
16305;DHT22;8261;47.678;-122.174;2022-07-22T06:22:07;18.70;99.90
16305;DHT22;8261;47.678;-122.174;2022-07-22T06:24:41;18.70;99.90
16305;DHT22;8261;47.678;-122.174;2022-07-22T06:27:17;18.70;99.90
16305;DHT22;8261;47.678;-122.174;2022-07-22T06:29:51;18.60;99.90
16305;DHT22;8261;47.678;-122.174;2022-07-22T06:32:23;18.50;99.90
16305;DHT22;8261;47.678;-122.174;2022-07-22T06:34:56;18.50;99.90
16305;DHT22;8261;47.678;-122.174;2022-07-22T06:37:27;18.50;99.90
16305;DHT22;8261;47.678;-122.174;2022-07-22T06:40:19;18.40;99.90
16305;DHT22;8261;47.678;-122.174;2022-07-22T06:42:53;18.30;99.90
16305;DHT22;8261;47.678;-122.174;2022-07-22T06:45:34;18.20;99.90
16305;DHT22;8261;47.678;-122.174;2022-07-22T06:48:19;18.30;99.90
16305;DHT22;8261;47.678;-122.174;2022-07-22T06:50:55;18.30;99.90
16305;DHT22;8261;47.678;-122.174;2022-07-22T06:53:27;18.30;99.90
16305;DHT22;8261;47.678;-122.174;2022-07-22T06:55:59;18.30;99.90
16305;DHT22;8261;47.678;-122.174;2022-07-22T06:58:36;18.30;99.90
16305;DHT22;8261;47.678;-122.174;2022-07-22T07:01:08;18.30;99.90
16305;DHT22;8261;47.678;-122.174;2022-07-22T07:03:41;18.30;99.90
16305;DHT22;8261;47.678;-122.174;2022-07-22T07:09:42;18.20;99.90
16305;DHT22;8261;47.678;-122.174;2022-07-22T07:12:16;18.20;99.90
16305;DHT22;8261;47.678;-122.174;2022-07-22T07:14:49;18.10;99.90
16305;DHT22;8261;47.678;-122.174;2022-07-22T07:17:33;18.20;99.90
16305;DHT22;8261;47.678;-122.174;2022-07-22T07:20:08;18.10;99.90
16305;DHT22;8261;47.678;-122.174;2022-07-22T07:22:41;18.10;99.90
16305;DHT22;8261;47.678;-122.174;2022-07-22T07:25:15;18.10;99.90
16305;DHT22;8261;47.678;-122.174;2022-07-22T07:27:50;18.00;99.90
16305;DHT22;8261;47.678;-122.174;2022-07-22T07:30:24;18.00;99.90
16305;DHT22;8261;47.678;-122.174;2022-07-22T07:32:56;17.90;99.90
16305;DHT22;8261;47.678;-122.174;2022-07-22T07:35:28;17.90;99.90
16305;DHT22;8261;47.678;-122.174;2022-07-22T07:38:00;17.80;99.90
16305;DHT22;8261;47.678;-122.174;2022-07-22T07:40:34;17.70;99.90
16305;DHT22;8261;47.678;-122.174;2022-07-22T07:43:05;17.60;99.90
16305;DHT22;8261;47.678;-122.174;2022-07-22T07:45:36;17.60;99.90
16305;DHT22;8261;47.678;-122.174;2022-07-22T07:48:09;17.40;99.90
16305;DHT22;8261;47.678;-122.174;2022-07-22T07:50:41;17.30;99.90
16305;DHT22;8261;47.678;-122.174;2022-07-22T07:53:15;17.20;99.90
16305;DHT22;8261;47.678;-122.174;2022-07-22T07:55:49;17.20;99.90
16305;DHT22;8261;47.678;-122.174;2022-07-22T07:58:22;17.20;99.90
16305;DHT22;8261;47.678;-122.174;2022-07-22T08:01:06;17.20;99.90
16305;DHT22;8261;47.678;-122.174;2022-07-22T08:03:38;17.10;99.90
16305;DHT22;8261;47.678;-122.174;2022-07-22T08:06:12;17.00;99.90
16305;DHT22;8261;47.678;-122.174;2022-07-22T08:08:45;16.70;99.90
16305;DHT22;8261;47.678;-122.174;2022-07-22T08:11:18;16.70;99.90
16305;DHT22;8261;47.678;-122.174;2022-07-22T08:13:50;16.70;99.90
16305;DHT22;8261;47.678;-122.174;2022-07-22T08:16:21;16.70;99.90
16305;DHT22;8261;47.678;-122.174;2022-07-22T08:18:52;16.60;99.90
16305;DHT22;8261;47.678;-122.174;2022-07-22T08:21:26;16.50;99.90
16305;DHT22;8261;47.678;-122.174;2022-07-22T08:23:58;16.40;99.90
16305;DHT22;8261;47.678;-122.174;2022-07-22T08:26:32;16.20;99.90
16305;DHT22;8261;47.678;-122.174;2022-07-22T08:29:03;16.20;99.90
16305;DHT22;8261;47.678;-122.174;2022-07-22T08:31:36;16.10;99.90
16305;DHT22;8261;47.678;-122.174;2022-07-22T08:34:11;16.10;99.90
16305;DHT22;8261;47.678;-122.174;2022-07-22T08:36:42;16.00;99.90
16305;DHT22;8261;47.678;-122.174;2022-07-22T08:39:14;15.90;99.90
16305;DHT22;8261;47.678;-122.174;2022-07-22T08:41:51;15.80;99.90
16305;DHT22;8261;47.678;-122.174;2022-07-22T08:44:23;15.80;99.90
16305;DHT22;8261;47.678;-122.174;2022-07-22T08:46:55;15.80;99.90
16305;DHT22;8261;47.678;-122.174;2022-07-22T08:49:34;15.70;99.90
16305;DHT22;8261;47.678;-122.174;2022-07-22T08:52:05;15.80;99.90
16305;DHT22;8261;47.678;-122.174;2022-07-22T08:54:36;15.70;99.90
16305;DHT22;8261;47.678;-122.174;2022-07-22T08:57:10;15.70;99.90
16305;DHT22;8261;47.678;-122.174;2022-07-22T08:59:52;15.40;99.90
16305;DHT22;8261;47.678;-122.174;2022-07-22T09:02:24;15.40;99.90
16305;DHT22;8261;47.678;-122.174;2022-07-22T09:04:58;15.50;99.90
16305;DHT22;8261;47.678;-122.174;2022-07-22T09:07:50;15.50;99.90
16305;DHT22;8261;47.678;-122.174;2022-07-22T09:10:21;15.40;99.90
16305;DHT22;8261;47.678;-122.174;2022-07-22T09:12:56;15.40;99.90
16305;DHT22;8261;47.678;-122.174;2022-07-22T09:15:29;15.30;99.90
16305;DHT22;8261;47.678;-122.174;2022-07-22T09:18:02;15.20;99.90
16305;DHT22;8261;47.678;-122.174;2022-07-22T09:20:35;15.20;99.90
16305;DHT22;8261;47.678;-122.174;2022-07-22T09:23:11;15.20;99.90
16305;DHT22;8261;47.678;-122.174;2022-07-22T09:25:44;15.10;99.90
16305;DHT22;8261;47.678;-122.174;2022-07-22T09:28:22;15.10;99.90
16305;DHT22;8261;47.678;-122.174;2022-07-22T09:30:55;15.00;99.90
16305;DHT22;8261;47.678;-122.174;2022-07-22T09:33:27;15.00;99.90
16305;DHT22;8261;47.678;-122.174;2022-07-22T09:36:02;15.00;99.90
16305;DHT22;8261;47.678;-122.174;2022-07-22T09:38:34;14.90;99.90
16305;DHT22;8261;47.678;-122.174;2022-07-22T09:41:05;15.00;99.90
16305;DHT22;8261;47.678;-122.174;2022-07-22T09:43:39;15.00;99.90
16305;DHT22;8261;47.678;-122.174;2022-07-22T09:46:10;15.00;99.90
16305;DHT22;8261;47.678;-122.174;2022-07-22T09:48:41;14.90;99.90
16305;DHT22;8261;47.678;-122.174;2022-07-22T09:51:13;14.90;99.90
16305;DHT22;8261;47.678;-122.174;2022-07-22T09:53:45;14.90;99.90
16305;DHT22;8261;47.678;-122.174;2022-07-22T09:56:18;14.80;99.90
16305;DHT22;8261;47.678;-122.174;2022-07-22T09:58:51;14.80;99.90
16305;DHT22;8261;47.678;-122.174;2022-07-22T10:01:26;14.70;99.90
16305;DHT22;8261;47.678;-122.174;2022-07-22T10:04:04;14.70;99.90
16305;DHT22;8261;47.678;-122.174;2022-07-22T10:06:38;14.70;99.90
16305;DHT22;8261;47.678;-122.174;2022-07-22T10:09:12;14.80;99.90
16305;DHT22;8261;47.678;-122.174;2022-07-22T10:11:46;14.80;99.90
16305;DHT22;8261;47.678;-122.174;2022-07-22T10:14:21;14.80;99.90
16305;DHT22;8261;47.678;-122.174;2022-07-22T10:16:55;14.80;99.90
16305;DHT22;8261;47.678;-122.174;2022-07-22T10:19:35;14.90;99.90
16305;DHT22;8261;47.678;-122.174;2022-07-22T10:25:55;14.90;99.90
16305;DHT22;8261;47.678;-122.174;2022-07-22T10:28:28;15.00;99.90
16305;DHT22;8261;47.678;-122.174;2022-07-22T10:31:28;15.00;99.90
16305;DHT22;8261;47.678;-122.174;2022-07-22T10:34:00;15.00;99.90
16305;DHT22;8261;47.678;-122.174;2022-07-22T10:36:34;14.90;99.90
16305;DHT22;8261;47.678;-122.174;2022-07-22T10:39:08;14.90;99.90
16305;DHT22;8261;47.678;-122.174;2022-07-22T10:41:43;14.80;99.90
16305;DHT22;8261;47.678;-122.174;2022-07-22T10:44:46;14.90;99.90
16305;DHT22;8261;47.678;-122.174;2022-07-22T10:47:53;14.90;99.90
16305;DHT22;8261;47.678;-122.174;2022-07-22T10:50:44;15.00;99.90
16305;DHT22;8261;47.678;-122.174;2022-07-22T10:53:20;15.00;99.90
16305;DHT22;8261;47.678;-122.174;2022-07-22T10:56:12;14.90;99.90
16305;DHT22;8261;47.678;-122.174;2022-07-22T10:58:58;14.90;99.90
16305;DHT22;8261;47.678;-122.174;2022-07-22T11:01:30;14.90;99.90
16305;DHT22;8261;47.678;-122.174;2022-07-22T11:04:15;14.90;99.90
16305;DHT22;8261;47.678;-122.174;2022-07-22T11:06:48;14.90;99.90
16305;DHT22;8261;47.678;-122.174;2022-07-22T11:09:22;14.90;99.90
16305;DHT22;8261;47.678;-122.174;2022-07-22T11:11:56;15.00;99.90
16305;DHT22;8261;47.678;-122.174;2022-07-22T11:14:29;14.90;99.90
16305;DHT22;8261;47.678;-122.174;2022-07-22T11:17:06;14.90;99.90
16305;DHT22;8261;47.678;-122.174;2022-07-22T11:19:40;14.80;99.90
16305;DHT22;8261;47.678;-122.174;2022-07-22T11:22:13;14.80;99.90
16305;DHT22;8261;47.678;-122.174;2022-07-22T11:24:49;14.80;99.90
16305;DHT22;8261;47.678;-122.174;2022-07-22T11:27:20;14.80;99.90
16305;DHT22;8261;47.678;-122.174;2022-07-22T11:29:54;14.90;99.90
16305;DHT22;8261;47.678;-122.174;2022-07-22T11:32:28;14.90;99.90
16305;DHT22;8261;47.678;-122.174;2022-07-22T11:35:02;15.00;99.90
16305;DHT22;8261;47.678;-122.174;2022-07-22T11:37:34;15.10;99.90
16305;DHT22;8261;47.678;-122.174;2022-07-22T11:40:08;15.10;99.90
16305;DHT22;8261;47.678;-122.174;2022-07-22T11:42:41;15.20;99.90
16305;DHT22;8261;47.678;-122.174;2022-07-22T11:45:12;15.20;99.90
16305;DHT22;8261;47.678;-122.174;2022-07-22T11:47:49;15.20;99.90
16305;DHT22;8261;47.678;-122.174;2022-07-22T11:50:33;15.20;99.90
16305;DHT22;8261;47.678;-122.174;2022-07-22T11:53:04;15.20;99.90
16305;DHT22;8261;47.678;-122.174;2022-07-22T11:55:36;15.20;99.90
16305;DHT22;8261;47.678;-122.174;2022-07-22T11:58:08;15.10;99.90
16305;DHT22;8261;47.678;-122.174;2022-07-22T12:00:40;15.10;99.90
16305;DHT22;8261;47.678;-122.174;2022-07-22T12:03:13;15.00;99.90
16305;DHT22;8261;47.678;-122.174;2022-07-22T12:05:46;15.10;99.90
16305;DHT22;8261;47.678;-122.174;2022-07-22T12:08:18;15.10;99.90
16305;DHT22;8261;47.678;-122.174;2022-07-22T12:10:50;15.10;99.90
16305;DHT22;8261;47.678;-122.174;2022-07-22T12:13:21;15.10;99.90
16305;DHT22;8261;47.678;-122.174;2022-07-22T12:15:52;15.00;99.90
16305;DHT22;8261;47.678;-122.174;2022-07-22T12:18:25;15.00;99.90
16305;DHT22;8261;47.678;-122.174;2022-07-22T12:21:06;15.00;99.90
16305;DHT22;8261;47.678;-122.174;2022-07-22T12:23:50;14.90;99.90
16305;DHT22;8261;47.678;-122.174;2022-07-22T12:26:37;15.00;99.90
16305;DHT22;8261;47.678;-122.174;2022-07-22T12:29:17;15.00;99.90
16305;DHT22;8261;47.678;-122.174;2022-07-22T12:31:50;15.00;99.90
16305;DHT22;8261;47.678;-122.174;2022-07-22T12:34:33;15.00;99.90
16305;DHT22;8261;47.678;-122.174;2022-07-22T12:37:15;15.10;99.90
16305;DHT22;8261;47.678;-122.174;2022-07-22T12:39:57;15.10;99.90
16305;DHT22;8261;47.678;-122.174;2022-07-22T12:42:30;15.20;99.90
16305;DHT22;8261;47.678;-122.174;2022-07-22T12:45:04;15.20;99.90
16305;DHT22;8261;47.678;-122.174;2022-07-22T12:47:44;15.10;99.90
16305;DHT22;8261;47.678;-122.174;2022-07-22T12:50:33;15.10;99.90
16305;DHT22;8261;47.678;-122.174;2022-07-22T12:53:10;15.10;99.90
16305;DHT22;8261;47.678;-122.174;2022-07-22T12:55:47;15.10;99.90
16305;DHT22;8261;47.678;-122.174;2022-07-22T12:58:25;15.10;99.90
16305;DHT22;8261;47.678;-122.174;2022-07-22T13:01:00;15.20;99.90
16305;DHT22;8261;47.678;-122.174;2022-07-22T13:03:31;15.20;99.90
16305;DHT22;8261;47.678;-122.174;2022-07-22T13:06:04;15.10;99.90
16305;DHT22;8261;47.678;-122.174;2022-07-22T13:08:43;15.10;99.90
16305;DHT22;8261;47.678;-122.174;2022-07-22T13:11:15;15.10;99.90
16305;DHT22;8261;47.678;-122.174;2022-07-22T13:13:48;15.10;99.90
16305;DHT22;8261;47.678;-122.174;2022-07-22T13:16:19;15.10;99.90
16305;DHT22;8261;47.678;-122.174;2022-07-22T13:18:51;15.00;99.90
16305;DHT22;8261;47.678;-122.174;2022-07-22T13:21:23;15.10;99.90
16305;DHT22;8261;47.678;-122.174;2022-07-22T13:23:56;15.10;99.90
16305;DHT22;8261;47.678;-122.174;2022-07-22T13:26:29;15.10;99.90
16305;DHT22;8261;47.678;-122.174;2022-07-22T13:29:01;15.10;99.90
16305;DHT22;8261;47.678;-122.174;2022-07-22T13:31:32;15.20;99.90
16305;DHT22;8261;47.678;-122.174;2022-07-22T13:34:25;15.30;99.90
16305;DHT22;8261;47.678;-122.174;2022-07-22T13:36:56;15.30;99.90
16305;DHT22;8261;47.678;-122.174;2022-07-22T13:39:32;15.40;99.90
16305;DHT22;8261;47.678;-122.174;2022-07-22T13:42:04;15.30;99.90
16305;DHT22;8261;47.678;-122.174;2022-07-22T13:44:35;15.20;99.90
16305;DHT22;8261;47.678;-122.174;2022-07-22T13:47:07;15.20;99.90
16305;DHT22;8261;47.678;-122.174;2022-07-22T13:49:38;15.20;99.90
16305;DHT22;8261;47.678;-122.174;2022-07-22T13:52:10;15.20;99.90
16305;DHT22;8261;47.678;-122.174;2022-07-22T13:54:44;15.30;99.90
16305;DHT22;8261;47.678;-122.174;2022-07-22T13:57:19;15.30;99.90
16305;DHT22;8261;47.678;-122.174;2022-07-22T13:59:51;15.30;99.90
16305;DHT22;8261;47.678;-122.174;2022-07-22T14:02:22;15.40;99.90
16305;DHT22;8261;47.678;-122.174;2022-07-22T14:04:54;15.50;99.90
16305;DHT22;8261;47.678;-122.174;2022-07-22T14:07:27;15.60;99.90
16305;DHT22;8261;47.678;-122.174;2022-07-22T14:10:00;15.50;99.90
16305;DHT22;8261;47.678;-122.174;2022-07-22T14:12:32;15.50;99.90
16305;DHT22;8261;47.678;-122.174;2022-07-22T14:15:04;15.50;99.90
16305;DHT22;8261;47.678;-122.174;2022-07-22T14:17:37;15.40;99.90
16305;DHT22;8261;47.678;-122.174;2022-07-22T14:20:10;15.50;99.90
16305;DHT22;8261;47.678;-122.174;2022-07-22T14:22:41;15.40;99.90
16305;DHT22;8261;47.678;-122.174;2022-07-22T14:25:15;15.40;99.90
16305;DHT22;8261;47.678;-122.174;2022-07-22T14:27:47;15.40;99.90
16305;DHT22;8261;47.678;-122.174;2022-07-22T14:30:38;15.40;99.90
16305;DHT22;8261;47.678;-122.174;2022-07-22T14:33:11;15.50;99.90
16305;DHT22;8261;47.678;-122.174;2022-07-22T14:35:46;15.60;99.90
16305;DHT22;8261;47.678;-122.174;2022-07-22T14:38:19;15.70;99.90
16305;DHT22;8261;47.678;-122.174;2022-07-22T14:40:54;15.70;99.90
16305;DHT22;8261;47.678;-122.174;2022-07-22T14:43:25;15.80;99.90
16305;DHT22;8261;47.678;-122.174;2022-07-22T14:46:11;15.80;99.90
16305;DHT22;8261;47.678;-122.174;2022-07-22T14:48:43;15.80;99.90
16305;DHT22;8261;47.678;-122.174;2022-07-22T14:51:17;15.90;99.90
16305;DHT22;8261;47.678;-122.174;2022-07-22T14:54:02;15.90;99.90
16305;DHT22;8261;47.678;-122.174;2022-07-22T14:56:56;15.90;99.90
16305;DHT22;8261;47.678;-122.174;2022-07-22T14:59:27;15.90;99.90
16305;DHT22;8261;47.678;-122.174;2022-07-22T15:01:59;16.00;99.90
16305;DHT22;8261;47.678;-122.174;2022-07-22T15:04:30;16.20;99.90
16305;DHT22;8261;47.678;-122.174;2022-07-22T15:07:02;16.30;99.90
16305;DHT22;8261;47.678;-122.174;2022-07-22T15:09:36;16.40;99.90
16305;DHT22;8261;47.678;-122.174;2022-07-22T15:12:15;16.40;99.90
16305;DHT22;8261;47.678;-122.174;2022-07-22T15:15:06;16.30;99.90
16305;DHT22;8261;47.678;-122.174;2022-07-22T15:18:03;16.20;99.90
16305;DHT22;8261;47.678;-122.174;2022-07-22T15:20:53;16.10;99.90
16305;DHT22;8261;47.678;-122.174;2022-07-22T15:23:41;16.20;99.90
16305;DHT22;8261;47.678;-122.174;2022-07-22T15:26:25;16.40;99.90
16305;DHT22;8261;47.678;-122.174;2022-07-22T15:29:47;16.40;99.90
16305;DHT22;8261;47.678;-122.174;2022-07-22T15:32:30;16.30;99.90
16305;DHT22;8261;47.678;-122.174;2022-07-22T15:35:02;16.30;99.90
16305;DHT22;8261;47.678;-122.174;2022-07-22T15:37:34;16.40;99.90
16305;DHT22;8261;47.678;-122.174;2022-07-22T15:40:08;16.40;99.90
16305;DHT22;8261;47.678;-122.174;2022-07-22T15:42:40;16.20;99.90
16305;DHT22;8261;47.678;-122.174;2022-07-22T15:45:31;16.40;99.90
16305;DHT22;8261;47.678;-122.174;2022-07-22T15:48:54;16.50;99.90
16305;DHT22;8261;47.678;-122.174;2022-07-22T15:51:40;16.40;99.90
16305;DHT22;8261;47.678;-122.174;2022-07-22T15:54:12;16.40;99.90
16305;DHT22;8261;47.678;-122.174;2022-07-22T15:56:43;16.10;99.90
16305;DHT22;8261;47.678;-122.174;2022-07-22T15:59:15;16.20;99.90
16305;DHT22;8261;47.678;-122.174;2022-07-22T16:02:02;16.40;99.90
16305;DHT22;8261;47.678;-122.174;2022-07-22T16:04:34;16.60;99.90
16305;DHT22;8261;47.678;-122.174;2022-07-22T16:07:06;16.70;99.90
16305;DHT22;8261;47.678;-122.174;2022-07-22T16:09:40;16.80;99.90
16305;DHT22;8261;47.678;-122.174;2022-07-22T16:12:11;16.70;99.90
16305;DHT22;8261;47.678;-122.174;2022-07-22T16:14:42;16.60;99.90
16305;DHT22;8261;47.678;-122.174;2022-07-22T16:17:16;16.60;99.90
16305;DHT22;8261;47.678;-122.174;2022-07-22T16:19:48;16.60;99.90
16305;DHT22;8261;47.678;-122.174;2022-07-22T16:22:20;16.40;99.90
16305;DHT22;8261;47.678;-122.174;2022-07-22T16:24:51;16.40;99.90
16305;DHT22;8261;47.678;-122.174;2022-07-22T16:27:23;16.60;99.90
16305;DHT22;8261;47.678;-122.174;2022-07-22T16:29:56;16.60;99.90
16305;DHT22;8261;47.678;-122.174;2022-07-22T16:32:30;16.80;99.90
16305;DHT22;8261;47.678;-122.174;2022-07-22T16:35:01;16.70;99.90
16305;DHT22;8261;47.678;-122.174;2022-07-22T16:37:33;16.70;99.90
16305;DHT22;8261;47.678;-122.174;2022-07-22T16:40:06;16.60;99.90
16305;DHT22;8261;47.678;-122.174;2022-07-22T16:42:39;16.80;99.90
16305;DHT22;8261;47.678;-122.174;2022-07-22T16:45:12;16.70;99.90
16305;DHT22;8261;47.678;-122.174;2022-07-22T16:47:45;16.80;99.90
16305;DHT22;8261;47.678;-122.174;2022-07-22T16:50:17;16.80;99.90
16305;DHT22;8261;47.678;-122.174;2022-07-22T16:52:52;16.80;99.90
16305;DHT22;8261;47.678;-122.174;2022-07-22T16:55:24;16.70;99.90
16305;DHT22;8261;47.678;-122.174;2022-07-22T16:57:55;16.50;99.90
16305;DHT22;8261;47.678;-122.174;2022-07-22T17:00:28;16.60;99.90
16305;DHT22;8261;47.678;-122.174;2022-07-22T17:03:02;16.80;99.90
16305;DHT22;8261;47.678;-122.174;2022-07-22T17:05:34;17.10;99.90
16305;DHT22;8261;47.678;-122.174;2022-07-22T17:08:05;17.10;99.90
16305;DHT22;8261;47.678;-122.174;2022-07-22T17:10:37;17.10;99.90
16305;DHT22;8261;47.678;-122.174;2022-07-22T17:13:08;17.10;99.90
16305;DHT22;8261;47.678;-122.174;2022-07-22T17:15:55;17.10;99.90
16305;DHT22;8261;47.678;-122.174;2022-07-22T17:18:28;17.30;99.90
16305;DHT22;8261;47.678;-122.174;2022-07-22T17:21:00;17.20;99.90
16305;DHT22;8261;47.678;-122.174;2022-07-22T17:23:33;17.20;99.90
16305;DHT22;8261;47.678;-122.174;2022-07-22T17:26:06;17.20;99.90
16305;DHT22;8261;47.678;-122.174;2022-07-22T17:28:39;17.30;99.90
16305;DHT22;8261;47.678;-122.174;2022-07-22T17:31:36;17.20;99.90
16305;DHT22;8261;47.678;-122.174;2022-07-22T17:34:26;17.40;99.90
16305;DHT22;8261;47.678;-122.174;2022-07-22T17:36:59;17.90;99.90
16305;DHT22;8261;47.678;-122.174;2022-07-22T17:39:43;17.80;99.90
16305;DHT22;8261;47.678;-122.174;2022-07-22T17:42:15;17.80;99.90
16305;DHT22;8261;47.678;-122.174;2022-07-22T17:44:47;18.00;99.90
16305;DHT22;8261;47.678;-122.174;2022-07-22T17:47:18;17.80;99.90
16305;DHT22;8261;47.678;-122.174;2022-07-22T17:49:52;17.70;99.90
16305;DHT22;8261;47.678;-122.174;2022-07-22T17:52:23;17.60;99.90
16305;DHT22;8261;47.678;-122.174;2022-07-22T17:54:54;18.00;99.90
16305;DHT22;8261;47.678;-122.174;2022-07-22T17:57:26;18.40;99.90
16305;DHT22;8261;47.678;-122.174;2022-07-22T17:59:57;18.70;99.90
16305;DHT22;8261;47.678;-122.174;2022-07-22T18:02:28;18.70;99.90
16305;DHT22;8261;47.678;-122.174;2022-07-22T18:05:02;19.00;99.90
16305;DHT22;8261;47.678;-122.174;2022-07-22T18:07:33;19.00;99.90
16305;DHT22;8261;47.678;-122.174;2022-07-22T18:10:19;18.90;99.90
16305;DHT22;8261;47.678;-122.174;2022-07-22T18:12:51;18.50;99.90
16305;DHT22;8261;47.678;-122.174;2022-07-22T18:15:37;18.70;99.90
16305;DHT22;8261;47.678;-122.174;2022-07-22T18:18:10;18.90;99.90
16305;DHT22;8261;47.678;-122.174;2022-07-22T18:21:12;18.60;99.90
16305;DHT22;8261;47.678;-122.174;2022-07-22T18:23:43;18.20;99.90
16305;DHT22;8261;47.678;-122.174;2022-07-22T18:26:14;18.40;99.90
16305;DHT22;8261;47.678;-122.174;2022-07-22T18:28:47;18.20;99.90
16305;DHT22;8261;47.678;-122.174;2022-07-22T18:31:20;18.30;99.90
16305;DHT22;8261;47.678;-122.174;2022-07-22T18:33:51;18.50;99.90
16305;DHT22;8261;47.678;-122.174;2022-07-22T18:36:26;18.60;99.90